Share

Lula, MS (38644)

4:35 PM CDT on April 24, 2014 (GMT -0500)
Tunica (KUTA) Elev 194 ft | 34.68 °N, 90.35 °W | Change Station

Current weather conditions updated 20 minutes ago

Scattered Clouds
Scattered Clouds
81 °F
Feels Like 80 °F
N
20
Wind Variable Wind from SSE
Gusts 24 mph
Sunrise 6:19 AM
Sunset 7:40 PM
Moon Waning Crescent

Tomorrow is forecast to be Cooler than today.

Pressure 29.76 in
Visibility 10.0 miles
Clouds Scattered Clouds 6000 ft
Scattered Clouds 8500 ft
Heat Index 80 °F
Dew Point 54 °F
Humidity 39%
Rainfall 0.00 in
Snow Depth Not available.
UV 4 out of 16
Pollen 8.40 out of 12
Air Quality Not available.
Flu Activity No Activity
METAR KUTA 242115Z AUTO 16017G21KT 10SM SCT060 SCT085 27/12 A2976 RMK AO2 LTG DSNT SW THRU NW

More Conditions Fewer Conditions

Pressure 29.76 in
Visibility 10.0 miles
Clouds Scattered Clouds 6000 ft
Scattered Clouds 8500 ft
Heat Index 80 °F
Dew Point 54 °F
Humidity 39%
Rainfall 0.00 in
Snow Depth Not available.
UV 4 out of 16
Pollen 8.40 out of 12
Air Quality Not available.
Flu Activity No Activity
METAR KUTA 242115Z AUTO 16017G21KT 10SM SCT060 SCT085 27/12 A2976 RMK AO2 LTG DSNT SW THRU NW

More Conditions Fewer Conditions

10-Day Weather Forecast

Almanac

Astronomy

Apr. 24, 2014 Rise Set
Actual Time 6:19 AM CDT 7:40 PM CDT
Civil Twilight 5:53 AM CDT 8:07 PM CDT
Nautical Twilight 5:21 AM CDT 8:38 PM CDT
Astronomical Twilight 4:48 AM CDT 9:11 PM CDT
Moon 3:17 AM CDT 3:08 PM CDT
Length of Visible Light 14h 14m
Length of Day
13h 21m
Tomorrow will be 1m 56s longer.
Waning Crescent, 22% of the Moon is Illuminated
Today
Waning Crescent
Apr 29
New
May 6
First Quarter
May 14
Full
May 21
Last Quarter

Today's Extremes

State Highs State Lows

Community

  • Jone Runs Falls
    Jone Runs Falls
  • Sunset at Apalachicola Bay, Florida
    Sunset at Apalachicola Bay, Florida
  • Clouds mov'n in
    Clouds mov'n in
  • Stacked
    Stacked
  • clouds approaching Red Sox Nation
    clouds approaching Red Sox Nation

WunderPhotos

Upload Photos

1,704,718 photos uploaded!

Nearby

Snow Depth

Station Depth Elevation
No new snow has been reported.

Coastal Water Temperatures

Place Temperature
No Stations Reporting

Earthquake Activity

City Distance Mag. Time & Date
Ridgely, Tennessee 134 miles 2.5 10:13 PM CDT
2014-04-19
Minimum magnitude displayed is 2.5.

Nearby Weather Stations

There are no personal weather stations in this area.

What do you think?

We're not finished. Please let us know what you like, what you don't like, and what you are still missing.